Time;durP1;ratioP1;P1;durP2;ratioP2;P2;SDS_P1;SDS_P2;PMS_P1;PMS_P2;Temp;Humidity;BMP_temperature;BMP_pressure;BME280_temperature;BME280_humidity;BME280_pressure;Samples;Min_cycle;Max_cycle;Signal;HPM_P1;HPM_P2
2022/11/10 00:02:28;;;;;;;70.38;35.53;;;;;;;19.17;67.52;99267.84;4780491;29;20139;-61
2022/11/10 00:05:29;;;;;;;77.93;38.97;;;;;;;19.03;68.49;99270.19;4780239;30;20063;-61
2022/11/10 00:08:37;;;;;;;70.80;37.22;;;;;;;19.07;68.61;99275.91;4781050;30;20480;-61
2022/11/10 00:11:45;;;;;;;66.30;33.38;;;;;;;18.80;68.97;99268.53;4778137;30;20656;-61
2022/11/10 00:18:23;;;;;;;57.22;32.78;;;;;;;18.71;69.47;99275.50;4745028;30;20063;-61
2022/11/10 00:21:31;;;;;;;64.47;32.60;;;;;;;18.72;69.61;99282.56;4779741;30;20059;-61
2022/11/10 00:24:38;;;;;;;63.83;33.97;;;;;;;18.71;69.97;99279.03;4781374;30;20051;-61
2022/11/10 00:27:39;;;;;;;64.15;33.00;;;;;;;18.60;69.23;99285.41;4766111;30;20491;-62
2022/11/10 00:30:46;;;;;;;66.68;33.08;;;;;;;18.81;69.05;99286.50;4780977;30;20468;-60
2022/11/10 00:33:48;;;;;;;65.78;33.70;;;;;;;18.75;69.20;99282.88;4781264;30;20059;-60
2022/11/10 00:36:56;;;;;;;61.55;34.10;;;;;;;18.73;68.96;99290.47;4781080;30;20113;-60
2022/11/10 00:40:11;;;;;;;65.35;33.92;;;;;;;18.88;68.16;99286.31;4775948;29;20063;-63
2022/11/10 00:43:05;;;;;;;59.17;31.70;;;;;;;18.73;68.29;99298.63;4778689;30;20320;-61
2022/11/10 00:46:13;;;;;;;50.72;28.15;;;;;;;18.71;67.80;99281.75;4780026;30;20063;-61
2022/11/10 00:49:22;;;;;;;42.55;23.60;;;;;;;18.88;66.87;99299.94;4779740;29;20066;-62
2022/11/10 00:52:21;;;;;;;41.45;22.38;;;;;;;18.92;66.76;99301.88;4779343;29;20059;-62
2022/11/10 00:55:28;;;;;;;36.55;19.90;;;;;;;18.87;66.85;99307.25;4779570;30;20059;-62
2022/11/10 00:58:28;;;;;;;34.60;18.92;;;;;;;19.02;66.82;99308.50;4778974;29;20059;-62
2022/11/10 01:01:36;;;;;;;34.65;18.88;;;;;;;19.05;66.67;99310.69;4779446;29;20070;-61
2022/11/10 01:04:43;;;;;;;34.78;18.85;;;;;;;19.08;66.44;99313.72;4779706;29;20128;-62
2022/11/10 01:07:50;;;;;;;37.10;20.60;;;;;;;19.06;66.77;99312.34;4780480;29;20055;-62
2022/11/10 01:11:16;;;;;;;37.35;20.95;;;;;;;18.98;66.20;99314.44;4763221;30;20496;-62
2022/11/10 01:14:23;;;;;;;38.53;20.95;;;;;;;19.03;66.39;99323.75;4762074;30;20066;-61
2022/11/10 01:17:32;;;;;;;47.72;22.75;;;;;;;19.01;66.26;99328.59;4771846;29;20152;-62
2022/11/10 01:20:41;;;;;;;43.15;23.17;;;;;;;18.75;66.51;99331.00;4780769;29;20685;-63
2022/11/10 01:23:49;;;;;;;43.92;22.60;;;;;;;18.77;66.56;99337.00;4760209;30;20067;-61
2022/11/10 01:26:50;;;;;;;40.28;21.90;;;;;;;18.66;66.40;99340.66;4764177;30;20055;-63
2022/11/10 01:29:57;;;;;;;40.33;21.98;;;;;;;18.83;66.12;99348.81;4767261;30;20059;-62
2022/11/10 01:33:04;;;;;;;39.50;19.77;;;;;;;18.65;65.67;99347.16;4778900;29;20399;-60
2022/11/10 01:36:06;;;;;;;42.80;19.77;;;;;;;18.63;65.37;99355.59;4776350;30;20513;-62
2022/11/10 01:39:19;;;;;;;34.15;18.25;;;;;;;18.64;65.25;99353.69;4779592;29;20098;-59
2022/11/10 01:42:48;;;;;;;38.85;20.27;;;;;;;18.78;64.59;99358.50;4783783;29;20067;-61
2022/11/10 01:46:14;;;;;;;38.72;19.63;;;;;;;18.81;65.18;99361.84;4782564;29;20209;-60
2022/11/10 01:49:25;;;;;;;36.38;19.42;;;;;;;18.82;64.95;99368.91;4761899;30;20096;-61
2022/11/10 01:52:24;;;;;;;41.55;18.98;;;;;;;18.76;65.18;99376.13;4771435;29;20055;-62
2022/11/10 01:55:33;;;;;;;42.20;20.27;;;;;;;18.93;64.62;99376.94;4780261;30;20051;-62
2022/11/10 01:58:39;;;;;;;45.92;22.23;;;;;;;18.95;64.09;99385.69;4779974;30;20051;-61
2022/11/10 02:01:48;;;;;;;46.75;21.45;;;;;;;18.86;64.43;99386.34;4778930;30;20143;-61
2022/11/10 02:04:48;;;;;;;38.38;21.73;;;;;;;19.05;64.26;99389.59;4775644;30;20162;-61
2022/11/10 02:07:56;;;;;;;41.63;23.63;;;;;;;19.16;63.71;99391.38;4777186;29;20074;-61
2022/11/10 02:11:02;;;;;;;46.50;24.38;;;;;;;18.86;63.67;99391.78;4782355;30;20058;-61
2022/11/10 02:14:04;;;;;;;49.88;25.40;;;;;;;18.99;62.87;99391.41;4780616;30;20134;-63
2022/11/10 02:17:10;;;;;;;56.28;26.55;;;;;;;18.90;62.90;99392.97;4779312;30;20060;-61
2022/11/10 02:20:15;;;;;;;52.83;27.45;;;;;;;19.09;62.96;99402.44;4782130;30;20184;-62
2022/11/10 02:23:37;;;;;;;62.15;28.20;;;;;;;19.36;63.63;99399.78;4779555;29;20082;-61
2022/11/10 02:26:53;;;;;;;55.20;24.55;;;;;;;19.27;62.75;99393.13;4782147;30;20056;-61
2022/11/10 02:29:53;;;;;;;57.80;27.00;;;;;;;19.58;62.75;99393.47;4782298;30;20074;-61
2022/11/10 02:33:02;;;;;;;48.67;25.40;;;;;;;19.79;63.21;99402.69;4777645;30;20058;-61
2022/11/10 02:36:10;;;;;;;53.75;25.20;;;;;;;19.93;63.34;99401.19;4781744;30;20056;-62
2022/11/10 02:39:10;;;;;;;53.83;25.67;;;;;;;20.01;62.92;99408.09;4781735;29;20066;-61
2022/11/10 02:42:17;;;;;;;50.13;26.30;;;;;;;19.99;62.45;99407.53;4779890;30;20109;-63
2022/11/10 02:45:18;;;;;;;60.85;26.80;;;;;;;20.13;62.11;99411.44;4780911;30;20055;-61
2022/11/10 02:48:26;;;;;;;48.03;25.02;;;;;;;20.20;62.58;99411.25;4782253;29;20054;-61
2022/11/10 02:51:26;;;;;;;56.05;27.60;;;;;;;20.18;60.98;99418.00;4781577;30;20205;-62
2022/11/10 02:54:34;;;;;;;59.80;27.13;;;;;;;20.25;60.39;99422.16;4781911;30;20065;-63
2022/11/10 02:57:36;;;;;;;62.35;28.27;;;;;;;20.41;61.86;99425.03;4781428;30;20519;-62
2022/11/10 03:00:43;;;;;;;59.90;28.02;;;;;;;20.58;60.94;99438.50;4782119;29;20173;-62
2022/11/10 03:03:51;;;;;;;67.45;28.25;;;;;;;20.51;59.43;99436.81;4782669;30;20055;-61
2022/11/10 03:06:51;;;;;;;72.93;29.58;;;;;;;20.49;59.18;99436.25;4782357;30;20066;-62
2022/11/10 03:09:58;;;;;;;68.10;29.80;;;;;;;20.73;58.05;99449.53;4782507;29;20070;-62
2022/11/10 03:13:03;;;;;;;57.45;27.65;;;;;;;20.91;57.68;99448.31;4781740;30;20111;-63
2022/11/10 03:16:10;;;;;;;64.40;28.45;;;;;;;21.17;55.79;99454.72;4781949;30;20146;-63
2022/11/10 03:19:17;;;;;;;75.25;29.83;;;;;;;21.19;56.48;99460.72;4782251;29;20151;-64
2022/11/10 03:22:18;;;;;;;71.47;32.05;;;;;;;21.24;55.59;99463.47;4771557;30;20051;-63
2022/11/10 03:25:25;;;;;;;79.30;35.22;;;;;;;21.59;55.72;99463.91;4781815;30;20208;-62
2022/11/10 03:28:33;;;;;;;169.15;43.55;;;;;;;21.80;55.37;99462.06;4781240;30;20492;-62
2022/11/10 03:31:34;;;;;;;94.78;38.20;;;;;;;21.82;54.21;99474.38;4781792;30;20213;-62
2022/11/10 03:34:41;;;;;;;94.43;41.22;;;;;;;21.92;55.82;99476.31;4777118;30;20043;-63
2022/11/10 03:37:41;;;;;;;93.05;37.97;;;;;;;22.18;55.17;99474.41;4786513;30;20055;-62
2022/11/10 03:40:57;;;;;;;80.90;34.55;;;;;;;22.40;54.58;99482.41;4785946;30;20062;-62
2022/11/10 03:44:11;;;;;;;74.93;33.10;;;;;;;22.69;53.81;99484.56;4781290;30;20063;-62
2022/11/10 03:47:18;;;;;;;62.85;26.08;;;;;;;23.04;51.68;99482.91;4763798;30;20199;-62
2022/11/10 03:50:25;;;;;;;42.13;21.10;;;;;;;23.16;49.91;99486.16;4781604;30;20361;-63
2022/11/10 03:53:26;;;;;;;53.65;20.00;;;;;;;23.37;49.86;99492.41;4792215;29;20067;-62
2022/11/10 03:56:33;;;;;;;49.65;22.10;;;;;;;23.74;48.41;99476.63;4781754;30;20069;-62
2022/11/10 03:59:35;;;;;;;44.80;19.77;;;;;;;23.92;47.61;99491.63;4769137;30;20138;-62
2022/11/10 04:02:42;;;;;;;42.92;19.02;;;;;;;23.78;45.87;99484.00;4781103;30;20384;-63
2022/11/10 04:09:08;;;;;;;43.00;18.58;;;;;;;24.43;44.44;99483.03;4763139;30;20082;-62
2022/11/10 04:15:43;;;;;;;42.13;16.73;;;;;;;24.56;43.93;99490.63;4779752;30;20116;-61
2022/11/10 04:18:43;;;;;;;41.45;16.88;;;;;;;25.56;46.42;99495.66;4767382;30;20059;-62
2022/11/10 04:21:52;;;;;;;33.03;15.88;;;;;;;25.37;42.03;99490.13;4770301;29;20051;-62
2022/11/10 04:24:58;;;;;;;34.80;14.48;;;;;;;25.95;42.55;99503.69;4777747;30;20051;-62
2022/11/10 04:27:59;;;;;;;31.98;15.80;;;;;;;25.84;42.61;99506.84;4779754;30;20051;-62
2022/11/10 04:31:07;;;;;;;31.08;14.50;;;;;;;25.69;42.91;99508.69;4779481;29;20141;-63
2022/11/10 04:34:08;;;;;;;26.42;13.20;;;;;;;26.41;42.52;99498.59;4763946;30;20067;-62
2022/11/10 04:37:16;;;;;;;28.67;12.73;;;;;;;24.88;41.47;99505.72;4780053;29;20055;-63
2022/11/10 04:40:17;;;;;;;28.83;12.40;;;;;;;25.27;41.68;99510.28;4778974;29;20051;-62
2022/11/10 04:43:26;;;;;;;28.98;13.23;;;;;;;25.35;41.96;99498.63;4772991;30;20584;-60
2022/11/10 04:46:43;;;;;;;33.63;14.75;;;;;;;26.01;40.99;99501.69;4767005;30;20156;-60
2022/11/10 04:49:50;;;;;;;25.45;14.32;;;;;;;25.10;41.92;99502.47;4780730;30;20082;-61
2022/11/10 04:52:51;;;;;;;34.65;14.57;;;;;;;25.04;41.73;99505.56;4784736;29;20066;-62
2022/11/10 04:55:58;;;;;;;24.55;12.52;;;;;;;25.69;41.71;99500.44;4776275;29;20088;-61
2022/11/10 04:59:06;;;;;;;28.63;13.05;;;;;;;26.27;40.14;99501.28;4779751;30;20055;-61
2022/11/10 05:02:05;;;;;;;25.48;13.27;;;;;;;27.03;39.53;99488.16;4778708;30;20564;-61
2022/11/10 05:05:13;;;;;;;24.10;12.52;;;;;;;26.67;38.84;99494.31;4779155;29;20067;-60
2022/11/10 05:08:21;;;;;;;22.98;12.63;;;;;;;26.45;39.45;99491.38;4779473;30;20063;-61
2022/11/10 05:11:22;;;;;;;26.40;12.73;;;;;;;27.11;39.58;99490.25;4777390;30;20397;-63
2022/11/10 05:14:30;;;;;;;25.75;13.20;;;;;;;27.08;40.60;99495.53;4779061;30;20059;-60
2022/11/10 05:17:30;;;;;;;27.67;13.23;;;;;;;27.48;39.67;99488.44;4777654;30;20152;-62
2022/11/10 05:20:38;;;;;;;23.00;12.15;;;;;;;27.29;41.34;99480.25;4766308;29;20069;-63
2022/11/10 05:23:38;;;;;;;25.75;11.32;;;;;;;27.41;38.04;99479.75;4777836;29;20689;-63
2022/11/10 05:26:45;;;;;;;29.02;12.00;;;;;;;27.81;38.79;99479.19;4777845;30;20162;-63
2022/11/10 05:29:45;;;;;;;23.35;12.82;;;;;;;27.61;40.43;99480.44;4778320;30;20058;-62
2022/11/10 05:32:51;;;;;;;21.65;11.23;;;;;;;27.85;39.45;99467.22;4767321;30;20092;-63
2022/11/10 05:35:54;;;;;;;23.38;12.52;;;;;;;27.89;38.52;99475.72;4778348;30;20055;-62
2022/11/10 05:39:07;;;;;;;26.20;12.52;;;;;;;27.90;37.72;99467.13;4778877;29;20051;-61
2022/11/10 05:42:14;;;;;;;22.88;11.77;;;;;;;27.75;37.99;99464.69;4767100;30;20492;-61
2022/11/10 05:45:21;;;;;;;19.65;9.93;;;;;;;27.59;37.51;99460.63;4781234;30;20088;-61
2022/11/10 05:48:21;;;;;;;18.73;10.00;;;;;;;28.01;38.03;99455.84;4781144;30;20059;-63
2022/11/10 05:51:29;;;;;;;25.60;11.30;;;;;;;27.56;37.63;99462.06;4756696;30;20051;-62
2022/11/10 05:54:29;;;;;;;19.90;10.82;;;;;;;27.72;38.08;99448.75;4768750;30;20054;-62
2022/11/10 05:57:36;;;;;;;21.05;11.48;;;;;;;27.85;37.10;99444.34;4781728;30;20055;-62
2022/11/10 06:00:36;;;;;;;27.20;13.55;;;;;;;27.91;36.88;99446.69;4782611;30;20062;-62
2022/11/10 06:03:43;;;;;;;26.25;12.68;;;;;;;27.59;35.91;99452.34;4777508;29;20064;-62
2022/11/10 06:06:43;;;;;;;30.50;14.15;;;;;;;28.14;36.04;99452.22;4781007;30;20051;-62
2022/11/10 06:09:51;;;;;;;26.70;14.45;;;;;;;27.68;36.15;99442.22;4779875;30;20151;-60
2022/11/10 06:12:59;;;;;;;30.83;15.45;;;;;;;27.87;35.43;99445.66;4782829;29;20078;-61
2022/11/10 06:15:58;;;;;;;32.65;16.80;;;;;;;27.84;35.99;99438.00;4773081;30;20135;-61
2022/11/10 06:19:06;;;;;;;28.73;16.25;;;;;;;28.32;37.72;99433.88;4779004;30;20092;-61
2022/11/10 06:22:06;;;;;;;32.83;16.55;;;;;;;27.98;35.41;99429.72;4780010;30;20059;-61
2022/11/10 06:25:14;;;;;;;38.03;16.20;;;;;;;28.19;36.82;99419.00;4771872;29;20067;-60
2022/11/10 06:28:22;;;;;;;33.13;16.10;;;;;;;28.20;36.54;99420.59;4780155;30;20066;-60
2022/11/10 06:31:22;;;;;;;30.13;15.60;;;;;;;28.08;36.99;99418.41;4780023;30;20473;-60
2022/11/10 06:34:29;;;;;;;25.13;13.98;;;;;;;27.83;34.79;99408.78;4778711;30;20062;-60
2022/11/10 06:37:30;;;;;;;29.65;15.43;;;;;;;27.91;34.83;99407.25;4780314;30;20142;-60
2022/11/10 06:40:44;;;;;;;29.40;15.68;;;;;;;28.37;36.34;99408.88;4779679;30;20472;-60
2022/11/10 06:43:50;;;;;;;35.47;16.17;;;;;;;27.76;36.91;99410.34;4770883;30;20047;-60
2022/11/10 06:46:50;;;;;;;31.33;15.13;;;;;;;27.75;34.95;99400.44;4779431;30;20056;-60
2022/11/10 06:49:58;;;;;;;27.83;15.13;;;;;;;27.65;35.92;99398.72;4780175;30;20054;-61
2022/11/10 06:53:02;;;;;;;33.95;15.85;;;;;;;28.05;35.54;99387.88;4782993;29;20131;-60
2022/11/10 06:56:09;;;;;;;32.80;15.15;;;;;;;28.38;35.85;99384.84;4781425;29;20051;-61
2022/11/10 06:59:11;;;;;;;31.40;14.85;;;;;;;27.66;36.76;99389.34;4782283;29;20066;-61
2022/11/10 07:02:18;;;;;;;27.73;14.35;;;;;;;28.34;36.57;99381.91;4781432;30;20055;-60
2022/11/10 07:05:19;;;;;;;26.20;14.50;;;;;;;28.38;36.95;99373.81;4781979;30;20179;-60
2022/11/10 07:08:27;;;;;;;26.90;14.68;;;;;;;28.38;35.44;99374.63;4775164;30;20059;-61
2022/11/10 07:11:36;;;;;;;29.63;14.63;;;;;;;28.47;35.44;99363.59;4778356;30;20085;-60
2022/11/10 07:14:36;;;;;;;33.03;14.27;;;;;;;28.46;35.22;99359.22;4780933;30;20066;-61
2022/11/10 07:17:47;;;;;;;25.02;13.90;;;;;;;27.75;34.35;99357.13;4780557;30;20078;-60
2022/11/10 07:20:55;;;;;;;28.98;13.73;;;;;;;27.48;36.41;99355.28;4781590;29;20456;-60
2022/11/10 07:23:55;;;;;;;22.02;13.38;;;;;;;27.71;36.90;99353.38;4781266;30;20565;-61
2022/11/10 07:27:02;;;;;;;23.35;12.32;;;;;;;27.88;36.45;99345.25;4781869;30;20147;-60
2022/11/10 07:30:03;;;;;;;21.60;12.55;;;;;;;28.45;37.58;99333.59;4763804;30;20073;-60
2022/11/10 07:33:13;;;;;;;19.85;11.98;;;;;;;28.20;34.86;99332.28;4772265;29;20452;-60
2022/11/10 07:36:13;;;;;;;27.95;11.55;;;;;;;28.23;35.38;99326.16;4779862;30;20059;-60
2022/11/10 07:39:20;;;;;;;22.75;11.65;;;;;;;28.69;37.29;99316.63;4780215;30;20949;-61
2022/11/10 07:42:21;;;;;;;18.33;11.13;;;;;;;28.33;36.24;99307.69;4778887;30;20078;-61
2022/11/10 07:45:30;;;;;;;28.25;12.57;;;;;;;28.17;35.90;99316.38;4781257;30;20149;-59
2022/11/10 07:48:37;;;;;;;22.80;11.48;;;;;;;28.18;37.65;99312.47;4764000;30;20081;-60
2022/11/10 07:51:37;;;;;;;18.48;10.85;;;;;;;28.36;36.63;99309.81;4765331;29;20063;-60
2022/11/10 07:54:44;;;;;;;19.85;11.07;;;;;;;28.30;34.90;99304.44;4779544;30;20085;-59
2022/11/10 07:57:45;;;;;;;22.67;11.88;;;;;;;28.21;36.63;99306.34;4779946;30;20647;-58
2022/11/10 08:00:53;;;;;;;15.63;10.25;;;;;;;28.40;37.36;99308.06;4778633;30;20759;-59
2022/11/10 08:03:53;;;;;;;19.85;10.57;;;;;;;28.41;36.75;99298.63;4776377;29;20051;-59
2022/11/10 08:07:01;;;;;;;23.60;12.10;;;;;;;28.48;35.64;99299.00;4780393;29;20059;-60
2022/11/10 08:10:00;;;;;;;18.23;11.85;;;;;;;28.16;36.19;99308.41;4781234;30;20073;-60
2022/11/10 08:13:13;;;;;;;24.27;12.32;;;;;;;28.11;36.90;99295.59;4780954;30;20061;-56
2022/11/10 08:16:19;;;;;;;19.77;11.55;;;;;;;28.50;35.63;99291.19;4775280;29;20527;-59
2022/11/10 08:19:20;;;;;;;22.63;10.88;;;;;;;28.36;37.04;99288.56;4771548;30;20058;-60
2022/11/10 08:22:28;;;;;;;18.42;10.43;;;;;;;28.43;36.88;99279.78;4769116;30;20071;-59
2022/11/10 08:25:28;;;;;;;18.23;10.52;;;;;;;27.94;36.74;99278.94;4771202;30;20146;-60
2022/11/10 08:28:35;;;;;;;15.80;10.15;;;;;;;28.08;37.76;99274.13;4776257;30;20112;-60
2022/11/10 08:31:38;;;;;;;21.27;10.68;;;;;;;28.36;37.08;99274.75;4779220;30;20063;-59
2022/11/10 08:34:46;;;;;;;20.77;10.00;;;;;;;28.72;36.81;99264.63;4777856;30;20078;-61
2022/11/10 08:37:46;;;;;;;23.38;10.93;;;;;;;27.96;38.28;99271.97;4779165;30;20087;-60
2022/11/10 08:41:02;;;;;;;18.73;10.48;;;;;;;28.09;37.80;99264.72;4777748;30;20062;-61
2022/11/10 08:43:56;;;;;;;23.25;10.98;;;;;;;28.27;39.07;99262.84;4778561;30;20635;-59
2022/11/10 08:47:08;;;;;;;15.63;10.38;;;;;;;28.34;37.43;99260.44;4777408;29;20473;-59
2022/11/10 08:50:09;;;;;;;18.15;11.35;;;;;;;28.28;38.10;99262.53;4764606;30;20048;-60
2022/11/10 08:53:23;;;;;;;22.17;11.10;;;;;;;28.16;37.74;99253.22;4774961;29;20089;-59
2022/11/10 08:56:24;;;;;;;22.55;10.88;;;;;;;28.14;38.41;99250.78;4778068;30;20051;-60
2022/11/10 08:59:31;;;;;;;18.48;11.18;;;;;;;28.34;37.66;99251.34;4777393;30;20127;-59
2022/11/10 09:02:39;;;;;;;25.00;12.15;;;;;;;27.99;38.55;99248.44;4774115;29;20189;-60
2022/11/10 09:05:47;;;;;;;20.50;11.20;;;;;;;28.12;39.06;99247.53;4778060;30;20078;-59
2022/11/10 09:08:56;;;;;;;22.98;10.82;;;;;;;28.23;38.84;99237.84;4778695;30;20495;-60
2022/11/10 09:12:05;;;;;;;21.15;10.75;;;;;;;28.16;37.97;99239.44;4778456;30;20074;-60
2022/11/10 09:15:13;;;;;;;23.17;12.10;;;;;;;27.98;38.87;99239.34;4776623;30;20512;-59
2022/11/10 09:18:16;;;;;;;23.70;11.38;;;;;;;27.73;38.70;99243.56;4780677;29;20066;-59
2022/11/10 09:21:23;;;;;;;21.85;10.98;;;;;;;28.05;38.57;99241.63;4783909;29;20059;-59
2022/11/10 09:24:30;;;;;;;23.13;11.77;;;;;;;27.82;38.70;99238.91;4782118;29;20545;-58
2022/11/10 09:27:41;;;;;;;21.25;12.70;;;;;;;27.90;38.73;99235.41;4781297;30;20078;-59
2022/11/10 09:30:50;;;;;;;22.25;11.63;;;;;;;27.73;37.79;99235.28;4781967;30;20066;-60
2022/11/10 09:33:51;;;;;;;18.60;11.93;;;;;;;27.93;37.60;99228.44;4782145;29;20066;-60
2022/11/10 09:36:58;;;;;;;21.70;12.13;;;;;;;28.05;37.40;99227.84;4781990;30;20107;-59
2022/11/10 09:39:59;;;;;;;23.38;11.50;;;;;;;27.86;37.79;99225.28;4782815;29;20103;-60
2022/11/10 09:43:19;;;;;;;25.00;12.77;;;;;;;27.79;37.64;99228.50;4782296;30;20062;-61
2022/11/10 09:46:49;;;;;;;23.67;11.85;;;;;;;27.99;37.88;99229.94;4781853;30;20058;-59
2022/11/10 09:50:01;;;;;;;29.60;12.23;;;;;;;27.47;38.24;99222.13;4780685;30;20173;-61
2022/11/10 09:53:08;;;;;;;18.80;11.95;;;;;;;27.57;38.94;99223.81;4778461;29;20067;-59
2022/11/10 09:56:31;;;;;;;20.58;11.32;;;;;;;27.80;37.98;99219.13;4780885;29;20058;-59
2022/11/10 09:59:40;;;;;;;26.52;11.55;;;;;;;27.77;37.68;99218.94;4781828;30;20394;-61
2022/11/10 10:02:48;;;;;;;19.63;10.93;;;;;;;27.58;38.81;99214.44;4782438;30;20062;-58
2022/11/10 10:06:16;;;;;;;16.60;11.10;;;;;;;27.60;39.21;99216.88;4781166;30;20051;-59
2022/11/10 10:09:42;;;;;;;19.10;11.35;;;;;;;27.72;37.71;99219.84;4779909;29;20059;-59
2022/11/10 10:13:08;;;;;;;23.98;11.93;;;;;;;27.82;37.77;99211.34;4772419;30;20086;-59
2022/11/10 10:16:37;;;;;;;25.10;11.25;;;;;;;27.45;38.14;99209.81;4781189;30;20208;-59
2022/11/10 10:20:01;;;;;;;35.80;12.05;;;;;;;27.36;38.23;99212.50;4765763;30;20202;-58
2022/11/10 10:23:30;;;;;;;29.98;12.52;;;;;;;27.45;38.95;99215.31;4780775;30;20062;-59
2022/11/10 10:26:58;;;;;;;28.85;12.80;;;;;;;27.23;38.87;99207.81;4772168;30;20138;-57
2022/11/10 10:30:16;;;;;;;;;;;;;;;27.51;39.22;99216.81;4782583;29;20059;-59
2022/11/10 10:33:22;;;;;;;30.15;13.60;;;;;;;27.23;38.21;99210.56;4781430;30;19929;-60
2022/11/10 10:36:30;;;;;;;37.80;16.95;;;;;;;27.23;40.29;99205.06;4779507;30;20794;-59
2022/11/10 10:39:49;;;;;;;33.50;16.00;;;;;;;27.27;40.95;99211.63;4780025;30;20680;-60
2022/11/10 10:42:58;;;;;;;26.52;16.83;;;;;;;27.04;38.57;99208.81;4782320;30;20467;-60
2022/11/10 10:46:30;;;;;;;27.98;15.52;;;;;;;27.16;40.65;99208.28;4779248;30;20058;-60
2022/11/10 10:49:38;;;;;;;32.67;17.05;;;;;;;27.02;39.92;99204.72;4781291;30;20059;-60
2022/11/10 10:52:38;;;;;;;32.85;16.88;;;;;;;27.04;41.84;99208.03;4783417;29;20150;-61
2022/11/10 10:55:54;;;;;;;34.78;15.70;;;;;;;27.06;39.79;99200.25;4447043;29;10000637;-61
2022/11/10 10:59:04;;;;;;;35.55;16.65;;;;;;;26.79;41.10;99206.63;4779682;29;20173;-56
2022/11/10 11:02:26;;;;;;;34.60;15.70;;;;;;;26.66;41.42;99208.31;4778731;29;20100;-56
2022/11/10 11:05:26;;;;;;;27.42;15.55;;;;;;;26.55;40.22;99202.19;4779242;29;20143;-58
2022/11/10 11:08:34;;;;;;;35.60;17.08;;;;;;;26.58;40.71;99204.31;4780310;29;20485;-56
2022/11/10 11:11:38;;;;;;;35.50;17.73;;;;;;;26.52;40.73;99206.38;4780075;30;20118;-56
2022/11/10 11:14:46;;;;;;;32.90;17.17;;;;;;;26.55;41.73;99211.25;4779934;30;20066;-57
2022/11/10 11:17:58;;;;;;;50.03;18.63;;;;;;;26.23;41.87;99206.66;4781654;29;20062;-57
2022/11/10 11:21:05;;;;;;;43.63;19.67;;;;;;;26.23;42.01;99212.19;4779521;29;20070;-60
2022/11/10 11:24:16;;;;;;;41.40;19.70;;;;;;;26.22;42.60;99207.00;4780991;30;20066;-57
2022/11/10 11:27:42;;;;;;;48.25;19.73;;;;;;;26.21;44.38;99211.66;4778524;29;20778;-59
2022/11/10 11:31:08;;;;;;;40.75;20.23;;;;;;;26.21;43.58;99211.66;4781868;29;20065;-56
2022/11/10 11:34:28;;;;;;;44.05;19.13;;;;;;;26.06;45.08;99212.78;4781161;29;20190;-56
2022/11/10 11:38:03;;;;;;;53.50;22.45;;;;;;;26.04;45.08;99214.22;4781830;29;20064;-56
2022/11/10 11:41:37;;;;;;;36.22;18.85;;;;;;;25.96;44.39;99208.28;4780048;29;20135;-59
2022/11/10 11:44:53;;;;;;;46.35;19.40;;;;;;;25.89;46.13;99209.78;4779732;30;20090;-60
2022/11/10 11:48:40;;;;;;;46.42;19.08;;;;;;;25.86;46.78;99208.47;4781998;29;20059;-60
2022/11/10 11:52:24;;;;;;;34.78;17.10;;;;;;;25.74;46.22;99210.91;4761061;29;20066;-60
2022/11/10 11:55:33;;;;;;;33.25;17.77;;;;;;;25.65;46.91;99209.94;4777390;29;20381;-60
2022/11/10 11:59:19;;;;;;;32.60;17.05;;;;;;;25.64;46.87;99216.56;4445479;30;10000357;-58
2022/11/10 12:02:34;;;;;;;42.47;17.50;;;;;;;25.59;47.48;99214.72;4776395;30;20120;-59
2022/11/10 12:05:51;;;;;;;46.92;17.83;;;;;;;25.43;46.73;99216.09;4776546;30;20070;-58
2022/11/10 12:09:10;;;;;;;44.63;18.75;;;;;;;25.41;48.00;99224.63;4777382;29;20055;-56
2022/11/10 12:12:27;;;;;;;30.50;18.10;;;;;;;25.27;48.40;99223.75;4773624;29;20059;-56
2022/11/10 12:15:48;;;;;;;38.08;19.42;;;;;;;25.16;48.90;99225.81;4777851;29;20063;-59
2022/11/10 12:18:59;;;;;;;39.05;19.85;;;;;;;25.04;49.05;99230.94;4778093;29;20055;-59
2022/11/10 12:22:29;;;;;;;43.05;20.08;;;;;;;25.04;49.34;99228.22;4772893;30;20062;-57
2022/11/10 12:26:10;;;;;;;45.58;19.52;;;;;;;24.88;50.55;99239.41;4775269;30;20059;-60
2022/11/10 12:29:27;;;;;;;52.28;20.77;;;;;;;24.76;49.95;99234.34;4777631;29;20089;-61
2022/11/10 12:36:53;;;;;;;52.25;19.92;;;;;;;24.45;51.18;99246.78;4776661;30;20147;-61
2022/11/10 12:40:23;;;;;;;49.28;19.90;;;;;;;24.35;51.19;99248.53;4778042;29;20059;-58
2022/11/10 12:43:33;;;;;;;56.08;21.20;;;;;;;24.26;51.70;99254.97;4780495;29;20063;-59
2022/11/10 12:46:35;;;;;;;50.75;21.08;;;;;;;24.14;52.88;99258.13;4777764;30;20204;-59
2022/11/10 12:50:12;;;;;;;42.90;19.70;;;;;;;24.10;52.06;99254.31;4778755;30;20231;-58
2022/11/10 12:53:33;;;;;;;50.42;19.35;;;;;;;24.14;52.34;99264.41;4780095;29;20059;-59
2022/11/10 12:56:58;;;;;;;40.50;19.55;;;;;;;24.02;53.15;99262.06;4777795;30;20098;-54
2022/11/10 13:00:12;;;;;;;;;;;;;;;23.98;53.44;99261.00;4778657;30;20446;-58
2022/11/10 13:03:39;;;;;;;49.08;20.15;;;;;;;23.84;53.83;99271.00;4778397;30;19979;-59
2022/11/10 13:06:55;;;;;;;48.42;22.08;;;;;;;23.80;53.55;99275.44;4775967;29;20376;-57
2022/11/10 13:10:26;;;;;;;69.03;26.48;;;;;;;23.87;53.85;99277.84;4779613;30;20058;-57
2022/11/10 13:13:36;;;;;;;53.50;23.50;;;;;;;23.77;53.87;99284.19;4779464;30;20196;-57
2022/11/10 13:16:43;;;;;;;52.33;25.02;;;;;;;23.77;53.51;99281.44;4778161;30;21264;-57
2022/11/10 13:19:57;;;;;;;66.15;25.88;;;;;;;23.78;53.16;99285.84;4780055;29;20070;-58
2022/11/10 13:23:32;;;;;;;59.08;26.20;;;;;;;23.90;53.81;99289.03;4778678;29;20062;-58
2022/11/10 13:26:45;;;;;;;57.38;28.02;;;;;;;23.88;52.72;99293.19;4769330;29;20067;-59
2022/11/10 13:29:45;;;;;;;72.03;31.23;;;;;;;23.92;53.17;99299.72;4780715;29;20066;-60
2022/11/10 13:32:53;;;;;;;69.95;29.63;;;;;;;23.83;53.18;99294.06;4778243;30;20078;-58
2022/11/10 13:35:56;;;;;;;66.10;31.35;;;;;;;23.98;52.87;99298.56;4776562;30;20707;-59
2022/11/10 13:39:22;;;;;;;61.25;31.27;;;;;;;23.99;51.97;99303.75;4779290;29;20237;-57
2022/11/10 13:42:35;;;;;;;64.70;30.90;;;;;;;24.11;51.78;99302.56;4778242;29;20194;-57
2022/11/10 13:45:42;;;;;;;56.58;30.17;;;;;;;24.13;51.97;99317.63;4776279;30;20464;-59
2022/11/10 13:49:16;;;;;;;56.25;29.17;;;;;;;24.12;51.45;99312.44;4778155;30;20111;-59
2022/11/10 13:52:32;;;;;;;69.43;30.80;;;;;;;24.17;51.81;99313.19;4770870;29;20048;-59
2022/11/10 13:55:58;;;;;;;62.85;27.98;;;;;;;24.17;50.91;99317.84;4777530;30;20370;-57
2022/11/10 13:59:05;;;;;;;53.72;27.45;;;;;;;24.15;52.02;99314.56;4779091;30;20047;-57
2022/11/10 14:02:33;;;;;;;66.07;28.50;;;;;;;24.11;51.32;99319.00;4757766;30;20051;-57
2022/11/10 14:05:40;;;;;;;64.80;28.17;;;;;;;23.95;51.23;99321.91;4780888;29;20112;-61
2022/11/10 14:09:11;;;;;;;54.53;28.65;;;;;;;24.01;51.63;99320.72;4781700;30;20055;-58
2022/11/10 14:12:39;;;;;;;62.00;27.40;;;;;;;24.02;51.29;99318.84;4780401;30;20505;-56
2022/11/10 14:15:49;;;;;;;55.40;28.40;;;;;;;24.06;51.57;99321.78;4781763;30;20606;-58
2022/11/10 14:19:22;;;;;;;54.55;27.08;;;;;;;23.99;51.48;99325.69;4768824;30;20546;-58
2022/11/10 14:22:37;;;;;;;56.45;26.55;;;;;;;24.04;50.94;99327.59;4771326;30;20066;-59
2022/11/10 14:25:48;;;;;;;57.35;27.42;;;;;;;24.01;51.28;99339.94;4781544;30;20059;-57
2022/11/10 14:28:56;;;;;;;48.78;26.05;;;;;;;23.99;50.59;99339.41;4783569;30;20062;-60
2022/11/10 14:31:56;;;;;;;51.33;25.90;;;;;;;23.96;51.17;99344.63;4774380;30;20258;-59
2022/11/10 14:35:16;;;;;;;55.78;26.30;;;;;;;23.82;51.90;99334.31;4782343;30;20070;-58
2022/11/10 14:38:48;;;;;;;53.28;25.77;;;;;;;23.79;50.86;99339.59;4772076;30;20092;-57
2022/11/10 14:42:05;;;;;;;54.75;25.90;;;;;;;23.87;51.89;99340.91;4781593;30;20059;-58
2022/11/10 14:45:15;;;;;;;57.53;27.17;;;;;;;23.79;51.02;99342.34;4767416;30;20067;-60
2022/11/10 14:48:28;;;;;;;45.50;24.95;;;;;;;23.87;50.88;99338.97;4782760;30;20569;-60